createdAt,value
2022-07-30T00:01:18.432Z,4.53
2022-07-30T00:03:45.946Z,5.15
2022-07-30T00:06:13.034Z,4.82
2022-07-30T00:08:40.096Z,4.68
2022-07-30T00:11:07.560Z,4.85
2022-07-30T00:13:34.605Z,4.65
2022-07-30T00:16:01.709Z,4.70
2022-07-30T00:18:29.102Z,4.70
2022-07-30T00:20:56.445Z,4.95
2022-07-30T00:23:23.643Z,4.70
2022-07-30T00:25:51.006Z,4.93
2022-07-30T00:28:18.109Z,4.80
2022-07-30T00:30:45.411Z,5.00
2022-07-30T00:33:12.846Z,5.32
2022-07-30T00:35:40.028Z,5.15
2022-07-30T00:38:07.211Z,4.55
2022-07-30T00:40:34.630Z,5.18
2022-07-30T00:43:01.716Z,5.15
2022-07-30T00:45:28.951Z,4.97
2022-07-30T00:47:56.476Z,4.87
2022-07-30T00:50:23.545Z,4.53
2022-07-30T00:52:51.104Z,4.30
2022-07-30T00:55:18.513Z,4.75
2022-07-30T00:57:45.607Z,5.40
2022-07-30T01:00:15.700Z,5.03
2022-07-30T01:02:43.891Z,5.18
2022-07-30T01:05:11.843Z,4.97
2022-07-30T01:07:38.969Z,5.00
2022-07-30T01:10:08.169Z,5.12
2022-07-30T01:12:36.234Z,5.10
2022-07-30T01:15:06.137Z,4.70
2022-07-30T01:17:34.455Z,5.15
2022-07-30T01:20:08.119Z,4.78
2022-07-30T01:22:46.653Z,4.75
2022-07-30T01:25:19.646Z,4.90
2022-07-30T01:28:18.554Z,5.05
2022-07-30T01:30:46.588Z,4.87
2022-07-30T01:33:19.274Z,5.03
2022-07-30T01:35:47.462Z,4.78
2022-07-30T01:38:17.217Z,5.00
2022-07-30T01:40:45.360Z,5.20
2022-07-30T01:43:12.990Z,5.07
2022-07-30T01:45:44.254Z,4.93
2022-07-30T01:48:13.591Z,5.12
2022-07-30T01:50:44.557Z,5.30
2022-07-30T01:53:23.483Z,5.25
2022-07-30T01:55:51.717Z,4.97
2022-07-30T01:58:23.591Z,5.82
2022-07-30T02:00:55.349Z,5.03
2022-07-30T02:03:23.829Z,5.10
2022-07-30T02:05:56.353Z,5.10
2022-07-30T02:08:42.221Z,4.97
2022-07-30T02:11:11.330Z,4.90
2022-07-30T02:13:51.195Z,5.68
2022-07-30T02:16:24.701Z,5.15
2022-07-30T02:19:00.334Z,5.37
2022-07-30T02:21:39.997Z,5.60
2022-07-30T02:24:20.542Z,5.03
2022-07-30T02:26:53.129Z,5.78
2022-07-30T02:29:20.908Z,4.85
2022-07-30T02:31:48.679Z,5.43
2022-07-30T02:34:16.901Z,5.47
2022-07-30T02:36:45.040Z,5.53
2022-07-30T02:39:14.459Z,5.80
2022-07-30T02:41:45.557Z,5.50
2022-07-30T02:46:45.853Z,5.47
2022-07-30T02:49:18.725Z,5.32
2022-07-30T02:51:47.798Z,5.50
2022-07-30T02:54:15.882Z,5.45
2022-07-30T02:56:44.826Z,5.00
2022-07-30T02:59:12.901Z,5.43
2022-07-30T03:01:42.120Z,5.45
2022-07-30T03:04:10.320Z,4.87
2022-07-30T03:06:38.241Z,4.78
2022-07-30T03:09:05.647Z,5.20
2022-07-30T03:11:34.538Z,5.50
2022-07-30T03:14:03.044Z,5.47
2022-07-30T03:16:31.900Z,5.25
2022-07-30T03:19:02.478Z,4.93
2022-07-30T03:21:34.190Z,5.10
2022-07-30T03:24:03.434Z,5.15
2022-07-30T03:26:31.680Z,4.93
2022-07-30T03:29:00.150Z,5.20
2022-07-30T03:31:36.175Z,5.25
2022-07-30T03:34:04.630Z,5.40
2022-07-30T03:36:35.017Z,5.35
2022-07-30T03:39:04.358Z,4.35
2022-07-30T03:41:32.178Z,5.03
2022-07-30T03:44:00.476Z,4.47
2022-07-30T03:46:28.505Z,5.47
2022-07-30T03:48:57.223Z,4.85
2022-07-30T03:51:25.303Z,4.93
2022-07-30T03:54:01.822Z,4.68
2022-07-30T03:56:30.382Z,5.03
2022-07-30T03:58:58.503Z,5.00
2022-07-30T04:01:26.896Z,4.78
2022-07-30T04:03:56.158Z,5.57
2022-07-30T04:06:23.545Z,5.20
2022-07-30T04:08:50.640Z,4.95
2022-07-30T04:11:18.256Z,5.15
2022-07-30T04:13:48.934Z,4.50
2022-07-30T04:16:40.383Z,5.00
2022-07-30T04:19:32.695Z,4.60
2022-07-30T04:22:02.106Z,4.82
2022-07-30T04:24:31.038Z,4.28
2022-07-30T04:26:59.619Z,4.55
2022-07-30T04:29:27.653Z,4.93
2022-07-30T04:31:55.328Z,3.90
2022-07-30T04:34:24.568Z,4.70
2022-07-30T04:36:52.024Z,4.50
2022-07-30T04:39:19.101Z,3.78
2022-07-30T04:41:49.010Z,5.10
2022-07-30T04:44:20.251Z,4.45
2022-07-30T04:46:49.054Z,4.80
2022-07-30T04:49:18.235Z,4.22
2022-07-30T04:51:46.027Z,4.35
2022-07-30T04:54:15.275Z,4.28
2022-07-30T04:56:52.600Z,4.53
2022-07-30T04:59:24.158Z,4.87
2022-07-30T05:01:52.449Z,4.40
2022-07-30T05:04:20.802Z,4.90
2022-07-30T05:06:50.215Z,4.37
2022-07-30T05:09:17.668Z,4.87
2022-07-30T05:11:55.176Z,4.57
2022-07-30T05:14:24.010Z,4.25
2022-07-30T05:16:51.881Z,4.78
2022-07-30T05:19:20.056Z,4.50
2022-07-30T05:21:48.203Z,3.92
2022-07-30T05:24:15.585Z,4.70
2022-07-30T05:26:42.907Z,4.30
2022-07-30T05:29:19.332Z,4.05
2022-07-30T05:31:48.093Z,4.45
2022-07-30T05:34:16.422Z,4.12
2022-07-30T05:36:45.124Z,4.22
2022-07-30T05:39:13.020Z,4.10
2022-07-30T05:41:42.088Z,4.32
2022-07-30T05:44:09.779Z,4.32
2022-07-30T05:46:37.670Z,4.10
2022-07-30T05:49:06.447Z,4.50
2022-07-30T05:51:33.979Z,4.35
2022-07-30T05:54:01.054Z,4.15
2022-07-30T05:56:30.994Z,4.30
2022-07-30T05:58:59.275Z,4.40
2022-07-30T06:01:28.255Z,4.43
2022-07-30T06:03:56.721Z,4.20
2022-07-30T06:06:26.182Z,4.32
2022-07-30T06:08:53.703Z,4.43
2022-07-30T06:11:21.823Z,4.50
2022-07-30T06:13:49.022Z,4.28
2022-07-30T06:16:16.342Z,4.55
2022-07-30T06:18:43.878Z,4.05
2022-07-30T06:21:11.681Z,4.20
2022-07-30T06:23:39.286Z,3.97
2022-07-30T06:26:07.666Z,4.30
2022-07-30T06:28:38.251Z,4.20
2022-07-30T06:31:07.638Z,4.47
2022-07-30T06:33:34.822Z,4.12
2022-07-30T06:36:02.069Z,4.47
2022-07-30T06:38:31.854Z,4.68
2022-07-30T06:41:02.748Z,3.92
2022-07-30T06:43:32.625Z,4.50
2022-07-30T06:46:00.838Z,4.22
2022-07-30T06:48:30.935Z,4.35
2022-07-30T06:50:59.331Z,4.57
2022-07-30T06:53:28.200Z,4.07
2022-07-30T06:56:00.398Z,3.90
2022-07-30T06:58:29.782Z,4.43
2022-07-30T07:00:58.170Z,4.32
2022-07-30T07:03:26.364Z,4.40
2022-07-30T07:06:08.560Z,4.07
2022-07-30T07:08:37.223Z,4.40
2022-07-30T07:11:05.717Z,4.62
2022-07-30T07:13:33.270Z,4.70
2022-07-30T07:16:02.279Z,4.07
2022-07-30T07:18:30.122Z,4.00
2022-07-30T07:20:57.812Z,4.50
2022-07-30T07:23:25.077Z,5.28
2022-07-30T07:25:52.635Z,4.80
2022-07-30T07:28:20.151Z,4.60
2022-07-30T07:30:47.711Z,4.30
2022-07-30T07:33:15.693Z,4.18
2022-07-30T07:35:48.705Z,4.18
2022-07-30T07:38:18.775Z,4.22
2022-07-30T07:40:47.618Z,4.28
2022-07-30T07:43:15.306Z,4.28
2022-07-30T07:45:43.348Z,4.03
2022-07-30T07:48:11.578Z,4.07
2022-07-30T07:50:39.881Z,4.93
2022-07-30T07:53:07.722Z,4.53
2022-07-30T07:55:35.854Z,4.05
2022-07-30T07:58:03.168Z,4.15
2022-07-30T08:00:32.896Z,4.50
2022-07-30T08:03:00.432Z,4.62
2022-07-30T08:06:01.785Z,4.90
2022-07-30T08:08:21.031Z,4.45
2022-07-30T08:10:52.889Z,4.07
2022-07-30T08:13:48.498Z,4.60
2022-07-30T08:16:25.086Z,5.18
2022-07-30T08:18:57.733Z,4.53
2022-07-30T08:21:27.452Z,4.85
2022-07-30T08:23:54.927Z,4.72
2022-07-30T08:26:22.005Z,4.60
2022-07-30T08:28:49.188Z,5.03
2022-07-30T08:31:18.093Z,4.35
2022-07-30T08:33:46.123Z,5.32
2022-07-30T08:36:13.826Z,5.20
2022-07-30T08:38:41.547Z,5.53
2022-07-30T08:41:08.949Z,5.65
2022-07-30T08:43:36.792Z,5.40
2022-07-30T08:46:10.301Z,5.50
2022-07-30T08:48:38.894Z,5.45
2022-07-30T08:51:06.985Z,5.82
2022-07-30T08:53:35.927Z,5.93
2022-07-30T08:56:04.108Z,5.70
2022-07-30T08:58:35.053Z,5.82
2022-07-30T09:01:03.188Z,6.25
2022-07-30T09:03:31.592Z,7.30
2022-07-30T09:06:01.288Z,6.95
2022-07-30T09:08:28.711Z,7.35
2022-07-30T09:10:55.930Z,7.28
2022-07-30T09:13:31.281Z,7.15
2022-07-30T09:15:59.275Z,7.45
2022-07-30T09:18:28.088Z,7.87
2022-07-30T09:20:55.852Z,7.37
2022-07-30T09:23:24.402Z,7.87
2022-07-30T09:25:53.158Z,8.73
2022-07-30T09:28:41.718Z,7.80
2022-07-30T09:31:15.259Z,8.68
2022-07-30T09:33:47.806Z,8.88
2022-07-30T09:36:18.453Z,11.90
2022-07-30T09:38:52.718Z,12.57
2022-07-30T09:41:39.311Z,14.68
2022-07-30T09:44:07.705Z,13.18
2022-07-30T09:46:45.491Z,13.70
2022-07-30T09:49:15.811Z,11.35
2022-07-30T09:51:54.172Z,11.12
2022-07-30T09:54:50.985Z,12.57
2022-07-30T09:57:26.228Z,11.75
2022-07-30T09:59:57.389Z,12.93
2022-07-30T10:02:32.381Z,12.60
2022-07-30T10:05:14.266Z,12.25
2022-07-30T10:07:59.321Z,12.88
2022-07-30T10:13:00.846Z,11.95
2022-07-30T10:15:32.537Z,13.00
2022-07-30T10:18:01.064Z,13.43
2022-07-30T10:20:32.565Z,13.43
2022-07-30T10:23:08.862Z,13.43
2022-07-30T10:25:49.743Z,13.43
2022-07-30T10:28:39.533Z,12.52
2022-07-30T10:31:46.471Z,13.23
2022-07-30T10:33:54.968Z,16.33
2022-07-30T10:36:23.904Z,16.00
2022-07-30T10:38:52.806Z,17.00
2022-07-30T10:41:47.428Z,14.13
2022-07-30T10:44:34.946Z,13.85
2022-07-30T10:47:10.337Z,14.30
2022-07-30T10:49:41.504Z,13.48
2022-07-30T10:52:10.890Z,12.88
2022-07-30T10:54:45.232Z,14.35
2022-07-30T10:57:14.760Z,14.05
2022-07-30T10:59:49.825Z,13.75
2022-07-30T11:02:19.705Z,14.02
2022-07-30T11:04:50.324Z,14.98
2022-07-30T11:07:30.118Z,15.95
2022-07-30T11:10:09.132Z,16.95
2022-07-30T11:12:44.009Z,16.60
2022-07-30T11:15:19.015Z,14.15
2022-07-30T11:20:43.223Z,14.00
2022-07-30T11:23:18.990Z,13.68
2022-07-30T11:25:51.431Z,14.20
2022-07-30T11:28:45.239Z,14.55
2022-07-30T11:31:37.177Z,13.05
2022-07-30T11:34:19.160Z,12.23
2022-07-30T11:37:21.634Z,10.63
2022-07-30T11:39:55.772Z,10.60
2022-07-30T11:42:30.559Z,10.25
2022-07-30T11:45:15.819Z,10.10
2022-07-30T11:47:56.282Z,9.38
2022-07-30T11:50:33.845Z,9.20
2022-07-30T11:53:04.215Z,8.43
2022-07-30T11:55:36.838Z,8.63
2022-07-30T11:58:06.455Z,8.13
2022-07-30T12:00:38.831Z,8.43
2022-07-30T12:03:18.225Z,8.38
2022-07-30T12:05:46.094Z,7.30
2022-07-30T12:08:35.246Z,7.20
2022-07-30T12:11:03.477Z,7.30
2022-07-30T12:13:44.810Z,7.10
2022-07-30T12:16:18.658Z,7.37
2022-07-30T12:18:48.478Z,7.30
2022-07-30T12:21:16.283Z,6.68
2022-07-30T12:23:57.029Z,6.72
2022-07-30T12:26:27.177Z,6.37
2022-07-30T12:28:55.983Z,7.03
2022-07-30T12:31:23.117Z,7.70
2022-07-30T12:33:50.735Z,7.47
2022-07-30T12:36:29.607Z,6.15
2022-07-30T12:38:58.163Z,6.15
2022-07-30T12:41:47.862Z,5.87
2022-07-30T12:44:53.844Z,5.30
2022-07-30T12:49:50.399Z,3.37
2022-07-30T12:52:34.410Z,2.67
2022-07-30T12:55:09.372Z,2.55
2022-07-30T12:58:05.529Z,2.53
2022-07-30T13:00:43.750Z,2.28
2022-07-30T13:03:21.966Z,2.25
2022-07-30T13:05:51.451Z,2.08
2022-07-30T13:08:52.141Z,2.45
2022-07-30T13:11:22.304Z,2.37
2022-07-30T13:13:50.415Z,2.25
2022-07-30T13:16:19.022Z,1.80
2022-07-30T13:18:47.179Z,2.22
2022-07-30T13:21:14.559Z,2.70
2022-07-30T13:23:41.904Z,2.37
2022-07-30T13:26:10.217Z,2.60
2022-07-30T13:28:37.334Z,2.62
2022-07-30T13:31:05.525Z,3.15
2022-07-30T13:33:32.992Z,2.97
2022-07-30T13:36:00.075Z,2.95
2022-07-30T13:38:27.770Z,3.08
2022-07-30T13:41:00.430Z,3.10
2022-07-30T13:43:29.544Z,2.47
2022-07-30T13:46:01.851Z,2.80
2022-07-30T13:48:31.480Z,2.80
2022-07-30T13:51:00.476Z,2.45
2022-07-30T13:53:28.620Z,2.62
2022-07-30T13:55:56.014Z,2.60
2022-07-30T13:58:23.217Z,1.87
2022-07-30T14:00:51.143Z,2.25
2022-07-30T14:03:18.522Z,1.62
2022-07-30T14:05:48.507Z,2.08
2022-07-30T14:08:15.880Z,1.33
2022-07-30T14:10:43.828Z,1.20
2022-07-30T14:13:18.990Z,1.33
2022-07-30T14:15:48.580Z,1.27
2022-07-30T14:18:15.890Z,1.30
2022-07-30T14:20:46.876Z,1.08
2022-07-30T14:23:16.882Z,1.40
2022-07-30T14:25:44.639Z,1.50
2022-07-30T14:28:11.935Z,1.55
2022-07-30T14:30:39.312Z,1.90
2022-07-30T14:33:06.466Z,1.60
2022-07-30T14:35:33.642Z,1.90
2022-07-30T14:38:03.144Z,2.25
2022-07-30T14:40:30.305Z,1.70
2022-07-30T14:42:57.986Z,1.70
2022-07-30T14:45:25.714Z,1.83
2022-07-30T14:47:53.486Z,1.90
2022-07-30T14:50:20.664Z,2.17
2022-07-30T14:52:48.846Z,1.70
2022-07-30T14:55:16.076Z,2.00
2022-07-30T14:57:43.528Z,1.60
2022-07-30T15:00:13.955Z,1.87
2022-07-30T15:02:41.079Z,1.92
2022-07-30T15:05:09.099Z,1.85
2022-07-30T15:07:36.502Z,1.98
2022-07-30T15:10:04.725Z,1.77
2022-07-30T15:12:31.830Z,1.92
2022-07-30T15:14:59.243Z,2.30
2022-07-30T15:17:28.124Z,1.80
2022-07-30T15:19:55.304Z,1.50
2022-07-30T15:22:22.723Z,1.33
2022-07-30T15:24:49.988Z,1.70
2022-07-30T15:27:17.159Z,1.52
2022-07-30T15:29:44.726Z,1.48
2022-07-30T15:32:11.855Z,1.70
2022-07-30T15:34:38.972Z,1.33
2022-07-30T15:37:06.408Z,1.52
2022-07-30T15:39:34.271Z,1.70
2022-07-30T15:42:02.857Z,1.73
2022-07-30T15:44:30.548Z,1.58
2022-07-30T15:46:58.041Z,1.67
2022-07-30T15:49:25.149Z,1.60
2022-07-30T15:51:52.749Z,1.70
2022-07-30T15:54:23.326Z,1.70
2022-07-30T15:56:51.485Z,1.92
2022-07-30T15:59:18.896Z,1.73
2022-07-30T16:01:46.342Z,1.85
2022-07-30T16:04:19.037Z,2.25
2022-07-30T16:06:48.239Z,1.90
2022-07-30T16:09:16.447Z,1.80
2022-07-30T16:11:43.690Z,1.90
2022-07-30T16:14:11.150Z,1.87
2022-07-30T16:16:38.640Z,1.70
2022-07-30T16:19:05.726Z,1.85
2022-07-30T16:21:32.866Z,1.83
2022-07-30T16:24:00.319Z,2.17
2022-07-30T16:26:27.497Z,1.67
2022-07-30T16:28:54.630Z,1.73
2022-07-30T16:31:22.038Z,1.90
2022-07-30T16:33:49.760Z,1.87
2022-07-30T16:36:16.974Z,2.28
2022-07-30T16:38:44.335Z,1.70
2022-07-30T16:41:13.410Z,1.80
2022-07-30T16:43:41.272Z,1.92
2022-07-30T16:46:08.681Z,2.20
2022-07-30T16:48:35.752Z,2.10
2022-07-30T16:51:03.577Z,1.87
2022-07-30T16:53:30.942Z,1.98
2022-07-30T16:55:58.525Z,2.12
2022-07-30T16:58:30.927Z,2.20
2022-07-30T17:00:58.816Z,2.45
2022-07-30T17:03:26.020Z,2.08
2022-07-30T17:05:53.287Z,2.10
2022-07-30T17:08:24.835Z,2.10
2022-07-30T17:10:53.534Z,2.12
2022-07-30T17:13:21.316Z,2.25
2022-07-30T17:15:48.567Z,1.73
2022-07-30T17:18:15.665Z,2.12
2022-07-30T17:20:43.523Z,2.35
2022-07-30T17:23:10.805Z,2.00
2022-07-30T17:25:37.909Z,2.30
2022-07-30T17:28:05.568Z,2.50
2022-07-30T17:30:32.662Z,2.25
2022-07-30T17:32:59.777Z,2.60
2022-07-30T17:35:27.440Z,2.47
2022-07-30T17:37:54.611Z,4.10
2022-07-30T17:40:28.176Z,2.55
2022-07-30T17:43:03.977Z,2.65
2022-07-30T17:45:33.129Z,2.58
2022-07-30T17:48:01.745Z,3.00
2022-07-30T17:50:30.443Z,2.65
2022-07-30T17:52:57.759Z,2.95
2022-07-30T17:55:25.733Z,2.20
2022-07-30T17:57:52.773Z,2.65
2022-07-30T18:00:20.335Z,2.75
2022-07-30T18:02:47.775Z,2.75
2022-07-30T18:05:15.670Z,2.50
2022-07-30T18:07:43.423Z,3.10
2022-07-30T18:10:11.730Z,3.10
2022-07-30T18:12:38.968Z,2.80
2022-07-30T18:15:17.559Z,2.72
2022-07-30T18:17:45.301Z,2.50
2022-07-30T18:20:12.621Z,3.17
2022-07-30T18:22:40.644Z,3.03
2022-07-30T18:25:18.552Z,2.50
2022-07-30T18:27:47.803Z,2.72
2022-07-30T18:30:15.548Z,2.95
2022-07-30T18:32:43.104Z,2.85
2022-07-30T18:35:14.098Z,2.72
2022-07-30T18:37:42.801Z,3.20
2022-07-30T18:40:13.769Z,2.90
2022-07-30T18:42:41.385Z,3.28
2022-07-30T18:45:09.214Z,3.17
2022-07-30T18:47:36.262Z,3.37
2022-07-30T18:50:04.039Z,3.58
2022-07-30T18:52:31.217Z,3.25
2022-07-30T18:54:58.427Z,2.87
2022-07-30T18:57:25.780Z,3.50
2022-07-30T18:59:52.968Z,3.37
2022-07-30T19:02:20.130Z,3.45
2022-07-30T19:04:47.469Z,3.50
2022-07-30T19:07:14.510Z,3.60
2022-07-30T19:09:43.003Z,3.50
2022-07-30T19:12:10.408Z,3.47
2022-07-30T19:14:37.956Z,3.90
2022-07-30T19:17:13.903Z,3.80
2022-07-30T19:19:42.761Z,4.10
2022-07-30T19:22:09.850Z,3.80
2022-07-30T19:24:37.300Z,4.28
2022-07-30T19:27:05.481Z,4.25
2022-07-30T19:29:32.577Z,4.60
2022-07-30T19:32:00.431Z,4.60
2022-07-30T19:34:28.085Z,4.80
2022-07-30T19:36:55.201Z,4.40
2022-07-30T19:39:22.315Z,4.60
2022-07-30T19:44:40.522Z,4.53
2022-07-30T19:47:08.616Z,4.95
2022-07-30T19:49:40.497Z,4.60
2022-07-30T19:52:22.691Z,5.10
2022-07-30T19:54:51.254Z,5.30
2022-07-30T19:57:20.585Z,5.55
2022-07-30T19:59:59.885Z,5.53
2022-07-30T20:02:39.350Z,5.68
2022-07-30T20:05:10.844Z,5.45
2022-07-30T20:07:39.594Z,5.35
2022-07-30T20:10:08.670Z,5.03
2022-07-30T20:12:35.803Z,5.80
2022-07-30T20:15:02.982Z,5.12
2022-07-30T20:17:31.012Z,5.32
2022-07-30T20:20:02.369Z,5.70
2022-07-30T20:22:29.615Z,5.10
2022-07-30T20:24:57.195Z,5.45
2022-07-30T20:27:37.228Z,5.50
2022-07-30T20:30:08.405Z,5.72
2022-07-30T20:32:36.697Z,6.10
2022-07-30T20:35:03.912Z,6.50
2022-07-30T20:37:31.307Z,5.47
2022-07-30T20:39:58.382Z,8.18
2022-07-30T20:42:25.662Z,6.75
2022-07-30T20:44:57.090Z,6.30
2022-07-30T20:47:37.998Z,6.97
2022-07-30T20:50:09.384Z,7.32
2022-07-30T20:52:40.268Z,7.15
2022-07-30T20:55:09.013Z,7.45
2022-07-30T20:57:56.958Z,7.32
2022-07-30T21:00:25.403Z,6.90
2022-07-30T21:02:52.559Z,7.00
2022-07-30T21:05:19.943Z,7.40
2022-07-30T21:07:47.804Z,7.22
2022-07-30T21:10:23.438Z,8.07
2022-07-30T21:12:53.389Z,7.53
2022-07-30T21:15:32.760Z,8.15
2022-07-30T21:18:01.563Z,7.28
2022-07-30T21:20:30.369Z,8.00
2022-07-30T21:23:10.194Z,8.25
2022-07-30T21:26:00.126Z,7.12
2022-07-30T21:28:28.206Z,6.87
2022-07-30T21:30:57.081Z,7.32
2022-07-30T21:33:31.149Z,7.53
2022-07-30T21:35:59.442Z,7.35
2022-07-30T21:38:27.726Z,8.13
2022-07-30T21:40:55.804Z,8.10
2022-07-30T21:46:11.391Z,8.43
2022-07-30T21:48:39.689Z,7.80
2022-07-30T21:51:08.509Z,7.18
2022-07-30T21:53:45.934Z,6.80
2022-07-30T21:56:15.835Z,6.90
2022-07-30T21:58:44.093Z,6.43
2022-07-30T22:01:17.491Z,6.43
2022-07-30T22:04:04.762Z,5.95
2022-07-30T22:06:41.413Z,5.97
2022-07-30T22:09:19.591Z,5.47
2022-07-30T22:12:01.466Z,5.30
2022-07-30T22:14:30.107Z,4.70
2022-07-30T22:16:58.834Z,5.12
2022-07-30T22:19:26.269Z,4.72
2022-07-30T22:21:53.868Z,4.75
2022-07-30T22:24:29.305Z,4.50
2022-07-30T22:27:10.980Z,4.20
2022-07-30T22:29:42.626Z,4.72
2022-07-30T22:32:11.571Z,4.37
2022-07-30T22:34:38.685Z,4.60
2022-07-30T22:37:09.265Z,4.28
2022-07-30T22:39:50.965Z,4.62
2022-07-30T22:42:24.529Z,4.65
2022-07-30T22:44:55.346Z,4.25
2022-07-30T22:47:51.550Z,4.35
2022-07-30T22:50:11.417Z,4.35
2022-07-30T22:52:50.283Z,4.28
2022-07-30T22:55:25.256Z,4.28
2022-07-30T22:57:52.774Z,4.20
2022-07-30T23:00:27.502Z,4.05
2022-07-30T23:02:56.844Z,4.75
2022-07-30T23:05:24.905Z,4.68
2022-07-30T23:07:52.023Z,4.97
2022-07-30T23:10:21.022Z,4.82
2022-07-30T23:12:14.800Z,4.57
2022-07-30T23:12:27.669Z,9.05
2022-07-30T23:12:53.603Z,4.70
2022-07-30T23:15:21.483Z,4.90
2022-07-30T23:17:48.878Z,5.25
2022-07-30T23:20:22.849Z,4.30
2022-07-30T23:22:50.845Z,4.62
2022-07-30T23:25:18.339Z,4.30
2022-07-30T23:27:46.798Z,5.15
2022-07-30T23:30:14.840Z,4.55
2022-07-30T23:32:42.059Z,4.57
2022-07-30T23:35:09.875Z,4.68
2022-07-30T23:37:49.107Z,4.80
2022-07-30T23:40:19.512Z,5.00
2022-07-30T23:42:50.998Z,4.97
2022-07-30T23:45:18.697Z,4.82
2022-07-30T23:47:51.198Z,4.80
2022-07-30T23:50:28.300Z,4.75
2022-07-30T23:52:55.816Z,5.18
2022-07-30T23:55:23.026Z,4.30
2022-07-30T23:57:50.418Z,4.85
